Terminal Aerodrome Forecast
Issued by NWS

Home | Current Version | Previous Version | Text Only | Print | Product List | Glossary On
Versions: 1 2 3 4 5 6 7 8 9 10 11 12 13
000
FTUS45 KSLC 301120
TAFENV
TAF
KENV 301120Z 3012/0112 33004KT P6SM FEW090 BKN150
     FM301800 11008KT P6SM SCT090 SCT150
     FM010200 33005KT P6SM BKN120=

USA.gov is the U.S. government's official web portal to all federal, state and local government web resources and services.